Time;durP1;ratioP1;P1;durP2;ratioP2;P2;SDS_P1;SDS_P2;PMS_P1;PMS_P2;Temp;Humidity;BMP_temperature;BMP_pressure;BME280_temperature;BME280_humidity;BME280_pressure;Samples;Min_cycle;Max_cycle;Signal;HPM_P1;HPM_P2
2023/10/18 00:03:26;;;;;;;6.43;5.27;;;;;6.20;100563.00;;;;10316627;28;21077;-71
2023/10/18 00:08:28;;;;;;;7.17;4.73;;;;;6.20;100557.00;;;;10299898;28;20314;-73
2023/10/18 00:13:31;;;;;;;7.00;4.83;;;;;6.10;100544.00;;;;10301020;28;20233;-73
2023/10/18 00:18:35;;;;;;;7.90;4.77;;;;;6.20;100543.00;;;;10299147;28;20210;-72
2023/10/18 00:23:39;;;;;;;8.10;5.07;;;;;6.20;100534.00;;;;10316115;28;20199;-70
2023/10/18 00:28:41;;;;;;;7.27;4.63;;;;;6.20;100534.00;;;;10281697;28;20271;-71
2023/10/18 00:33:47;;;;;;;7.97;4.87;;;;;6.20;100538.00;;;;10316233;28;21202;-71
2023/10/18 00:38:52;;;;;;;9.90;4.23;;;;;6.20;100531.00;;;;10352175;28;21752;-73
2023/10/18 00:43:55;;;;;;;6.23;4.63;;;;;6.20;100518.00;;;;10350703;28;20284;-71
2023/10/18 00:48:57;;;;;;;6.77;4.67;;;;;6.10;100505.00;;;;10364609;28;20285;-71
2023/10/18 00:53:59;;;;;;;11.03;5.30;;;;;6.10;100497.00;;;;10366054;28;20201;-73
2023/10/18 00:59:04;;;;;;;8.83;4.77;;;;;6.00;100480.00;;;;10366440;28;20295;-73
2023/10/18 01:04:06;;;;;;;6.53;4.67;;;;;6.00;100480.00;;;;10381452;28;20206;-74
2023/10/18 01:09:15;;;;;;;7.70;4.57;;;;;6.00;100488.00;;;;10383492;28;20308;-74
2023/10/18 01:14:18;;;;;;;7.27;4.63;;;;;6.00;100486.00;;;;10365214;28;20202;-75
2023/10/18 01:19:20;;;;;;;7.57;5.17;;;;;5.90;100484.00;;;;10371754;28;20202;-73
2023/10/18 01:24:22;;;;;;;7.50;5.50;;;;;5.90;100467.00;;;;10398544;28;20316;-74
2023/10/18 01:29:25;;;;;;;7.60;4.77;;;;;5.90;100462.00;;;;10395920;28;21884;-74
2023/10/18 01:34:28;;;;;;;8.27;5.33;;;;;5.90;100460.00;;;;10378940;28;20206;-74
2023/10/18 01:39:31;;;;;;;6.50;4.83;;;;;5.80;100442.00;;;;10395717;28;20220;-74
2023/10/18 01:44:33;;;;;;;8.83;5.10;;;;;5.80;100429.00;;;;10395727;28;20291;-74
2023/10/18 01:49:54;;;;;;;6.83;5.20;;;;;5.80;100423.00;;;;10361439;28;20244;-74
2023/10/18 01:54:56;;;;;;;10.10;5.83;;;;;5.70;100431.00;;;;10395890;28;21649;-74
2023/10/18 01:59:58;;;;;;;8.43;6.13;;;;;5.70;100410.00;;;;10395081;28;20279;-74
2023/10/18 02:05:05;;;;;;;8.97;5.37;;;;;5.70;100402.00;;;;10396884;28;20210;-74
2023/10/18 02:10:07;;;;;;;7.43;4.80;;;;;5.70;100401.00;;;;10395598;28;21023;-73
2023/10/18 02:15:11;;;;;;;8.00;5.10;;;;;5.80;100394.00;;;;10369646;28;20218;-73
2023/10/18 02:20:26;;;;;;;8.43;5.53;;;;;5.70;100386.00;;;;10369906;28;20233;-73
2023/10/18 02:25:44;;;;;;;8.73;5.53;;;;;5.70;100393.00;;;;10367337;28;20241;-72
2023/10/18 02:30:47;;;;;;;6.77;4.97;;;;;5.70;100380.00;;;;10363529;28;20237;-72
2023/10/18 02:35:49;;;;;;;6.40;5.33;;;;;5.70;100371.00;;;;10380158;28;20794;-73
2023/10/18 02:40:51;;;;;;;8.23;5.33;;;;;5.80;100368.00;;;;10379720;28;20346;-73
2023/10/18 02:45:53;;;;;;;8.63;5.27;;;;;5.80;100350.00;;;;10378782;28;20221;-72
2023/10/18 02:50:57;;;;;;;8.70;5.80;;;;;5.90;100343.00;;;;10378344;28;21104;-73
2023/10/18 02:55:59;;;;;;;6.83;5.03;;;;;5.90;100336.00;;;;10345242;28;20260;-72
2023/10/18 03:01:08;;;;;;;6.77;5.33;;;;;5.90;100335.00;;;;10344889;28;21568;-72
2023/10/18 03:06:14;;;;;;;6.17;5.17;;;;;6.00;100338.00;;;;10379272;28;20958;-73
2023/10/18 03:11:17;;;;;;;8.30;5.37;;;;;6.00;100325.00;;;;10378062;28;20234;-73
2023/10/18 03:16:55;;;;;;;8.03;4.97;;;;;6.00;100321.00;;;;10359733;28;20307;-71
2023/10/18 03:21:50;;;;;;;7.10;5.23;;;;;6.10;100301.00;;;;10373489;28;20373;-73
2023/10/18 03:26:52;;;;;;;8.00;4.80;;;;;6.10;100299.00;;;;10377218;28;20225;-72
2023/10/18 03:31:54;;;;;;;8.17;5.83;;;;;6.00;100295.00;;;;10360786;28;21729;-72
2023/10/18 03:36:56;;;;;;;9.97;6.20;;;;;6.00;100280.00;;;;10376915;28;20245;-72
2023/10/18 03:41:59;;;;;;;6.93;4.73;;;;;6.00;100280.00;;;;10359906;28;20364;-73
2023/10/18 03:47:05;;;;;;;7.63;5.00;;;;;5.90;100293.00;;;;10342011;28;20398;-73
2023/10/18 03:57:16;;;;;;;9.60;5.93;;;;;5.80;100284.00;;;;10357980;28;21255;-72
2023/10/18 04:07:26;;;;;;;6.60;4.67;;;;;5.70;100254.00;;;;10376128;28;20263;-72
2023/10/18 04:12:29;;;;;;;6.63;4.93;;;;;5.70;100246.00;;;;10375684;28;20249;-73
2023/10/18 04:17:37;;;;;;;8.43;5.23;;;;;5.60;100237.00;;;;10374276;28;20318;-72
2023/10/18 04:22:40;;;;;;;7.50;6.43;;;;;5.50;100232.00;;;;10376462;28;20967;-73
2023/10/18 04:27:44;;;;;;;10.43;5.37;;;;;5.50;100226.00;;;;10358301;28;21662;-73
2023/10/18 04:32:47;;;;;;;10.23;5.90;;;;;5.50;100217.00;;;;10373014;28;21381;-71
2023/10/18 04:37:49;;;;;;;7.10;4.90;;;;;5.50;100208.00;;;;10371324;28;20214;-71
2023/10/18 04:42:54;;;;;;;9.73;5.77;;;;;5.50;100203.00;;;;10336302;28;20238;-70
2023/10/18 04:48:01;;;;;;;9.53;5.50;;;;;5.60;100187.00;;;;10366563;28;20232;-72
2023/10/18 04:53:12;;;;;;;6.83;4.73;;;;;5.60;100174.00;;;;10348672;28;20980;-72
2023/10/18 04:58:15;;;;;;;7.63;4.53;;;;;5.60;100168.00;;;;10368863;28;20210;-71
2023/10/18 05:03:18;;;;;;;9.13;5.00;;;;;5.70;100154.00;;;;10350624;28;20210;-72
2023/10/18 05:08:20;;;;;;;9.87;5.10;;;;;5.70;100147.00;;;;10370549;28;21775;-70
2023/10/18 05:13:36;;;;;;;9.13;5.63;;;;;5.80;100143.00;;;;10369734;28;20264;-72
2023/10/18 05:18:37;;;;;;;8.87;5.10;;;;;5.80;100134.00;;;;10367782;28;20217;-71
2023/10/18 05:23:41;;;;;;;7.70;5.03;;;;;5.90;100133.00;;;;10349988;28;20234;-71
2023/10/18 05:28:52;;;;;;;6.70;4.97;;;;;5.90;100135.00;;;;10367404;28;20747;-71
2023/10/18 05:34:47;;;;;;;7.00;5.13;;;;;5.90;100128.00;;;;10366323;28;21008;-72
2023/10/18 05:44:29;;;;;;;6.60;4.80;;;;;5.90;100116.00;;;;10352107;28;20218;-71
2023/10/18 05:49:40;;;;;;;8.17;4.70;;;;;5.90;100112.00;;;;10367846;28;20276;-71
2023/10/18 05:54:45;;;;;;;6.07;4.63;;;;;5.90;100097.00;;;;10353429;28;20237;-72
2023/10/18 05:59:48;;;;;;;5.83;4.80;;;;;5.90;100087.00;;;;10351658;28;20218;-72
2023/10/18 06:04:52;;;;;;;7.03;4.93;;;;;5.90;100086.00;;;;10353521;28;20774;-72
2023/10/18 06:15:10;;;;;;;8.13;5.73;;;;;6.00;100082.00;;;;10376592;28;20214;-72
2023/10/18 06:20:28;;;;;;;6.37;4.63;;;;;6.00;100069.00;;;;10358989;28;21683;-70
2023/10/18 06:25:34;;;;;;;7.90;4.97;;;;;6.10;100077.00;;;;10371250;28;20214;-72
2023/10/18 06:30:39;;;;;;;5.87;4.43;;;;;6.20;100087.00;;;;10357022;28;20234;-72
2023/10/18 06:35:52;;;;;;;8.67;5.10;;;;;6.30;100078.00;;;;10373641;28;21842;-72
2023/10/18 06:46:08;;;;;;;6.93;5.10;;;;;6.40;100068.00;;;;10372604;28;20709;-72
2023/10/18 06:51:17;;;;;;;8.23;4.60;;;;;6.50;100069.00;;;;10357604;28;20226;-71
2023/10/18 06:56:32;;;;;;;6.20;4.80;;;;;6.60;100069.00;;;;10343866;28;20218;-72
2023/10/18 07:01:41;;;;;;;6.60;4.53;;;;;6.70;100062.00;;;;10375940;28;20214;-71
2023/10/18 07:06:44;;;;;;;8.53;5.23;;;;;6.70;100043.00;;;;10375930;28;20210;-73
2023/10/18 07:11:48;;;;;;;8.90;5.17;;;;;6.80;100050.00;;;;10377508;28;20229;-72
2023/10/18 07:16:56;;;;;;;6.73;4.43;;;;;6.90;100053.00;;;;10360084;28;20206;-73
2023/10/18 07:21:58;;;;;;;6.23;4.70;;;;;7.10;100051.00;;;;10341140;28;20241;-72
2023/10/18 07:27:09;;;;;;;6.90;4.63;;;;;7.30;100060.00;;;;10378825;28;21808;-73
2023/10/18 07:32:12;;;;;;;5.43;4.20;;;;;7.50;100041.00;;;;10378406;28;20206;-73
2023/10/18 07:37:19;;;;;;;7.23;5.20;;;;;7.70;100024.00;;;;10375561;28;20213;-73
2023/10/18 07:42:22;;;;;;;8.47;4.50;;;;;8.00;100030.00;;;;10373561;28;21917;-72
2023/10/18 07:47:32;;;;;;;7.90;4.73;;;;;8.20;100024.00;;;;10355821;28;20264;-72
2023/10/18 07:52:34;;;;;;;7.70;4.77;;;;;8.40;100000.00;;;;10357539;28;20210;-72
2023/10/18 07:57:46;;;;;;;6.47;4.47;;;;;8.70;99982.00;;;;10360861;28;20207;-73
2023/10/18 08:02:52;;;;;;;5.67;4.17;;;;;8.90;99974.00;;;;10374603;28;20309;-74
2023/10/18 08:07:57;;;;;;;5.87;4.20;;;;;9.20;99974.00;;;;10386037;28;20214;-73
2023/10/18 08:13:08;;;;;;;8.53;4.70;;;;;9.50;99967.00;;;;10351491;28;20294;-75
2023/10/18 08:18:16;;;;;;;11.30;5.03;;;;;9.90;99965.00;;;;10331479;28;20324;-74
2023/10/18 08:28:23;;;;;;;4.60;3.80;;;;;10.70;99942.00;;;;10335475;28;20217;-74
2023/10/18 08:33:25;;;;;;;6.83;4.07;;;;;10.90;99938.00;;;;10337487;28;20830;-75
2023/10/18 08:38:26;;;;;;;3.97;3.50;;;;;11.30;99930.00;;;;10344731;28;20305;-74
2023/10/18 08:43:31;;;;;;;4.70;3.63;;;;;11.60;99917.00;;;;10334917;28;21035;-73
2023/10/18 08:48:38;;;;;;;7.23;4.27;;;;;11.70;99911.00;;;;10335250;28;20218;-75
2023/10/18 08:53:41;;;;;;;9.47;3.90;;;;;12.00;99896.00;;;;10313085;28;20592;-75
2023/10/18 08:58:47;;;;;;;6.93;3.73;;;;;12.00;99885.00;;;;10332208;28;20190;-74
2023/10/18 09:03:49;;;;;;;7.50;3.83;;;;;12.20;99882.00;;;;10300566;28;20206;-74
2023/10/18 09:09:05;;;;;;;8.57;4.20;;;;;12.30;99883.00;;;;10315788;28;20672;-74
2023/10/18 09:14:12;;;;;;;8.13;3.83;;;;;12.60;99866.00;;;;10330153;28;20289;-73
2023/10/18 09:19:14;;;;;;;9.88;4.07;;;;;12.90;99852.00;;;;10331392;28;20198;-74
2023/10/18 09:24:23;;;;;;;5.63;3.75;;;;;13.50;99844.00;;;;10310799;28;20222;-75
2023/10/18 09:29:26;;;;;;;7.68;3.72;;;;;13.80;99852.00;;;;10312506;28;20225;-74
2023/10/18 09:34:38;;;;;;;4.50;3.47;;;;;13.90;99838.00;;;;10333227;28;20291;-75
2023/10/18 09:39:43;;;;;;;5.22;3.60;;;;;14.20;99825.00;;;;10334996;28;20237;-75
2023/10/18 09:44:46;;;;;;;6.65;3.10;;;;;14.40;99803.00;;;;10320946;28;20235;-74
2023/10/18 09:49:50;;;;;;;3.47;2.97;;;;;14.70;99791.00;;;;10321991;28;21062;-75
2023/10/18 09:54:59;;;;;;;7.60;4.40;;;;;14.60;99792.00;;;;10337080;28;20233;-75
2023/10/18 10:00:14;;;;;;;6.95;3.28;;;;;14.90;99775.00;;;;10322340;28;20199;-75
2023/10/18 10:05:26;;;;;;;6.32;3.13;;;;;15.30;99754.00;;;;10338916;28;20190;-74
2023/10/18 10:11:13;;;;;;;6.00;3.50;;;;;15.40;99755.00;;;;10337487;28;20689;-73
2023/10/18 10:16:04;;;;;;;6.65;3.88;;;;;15.50;99737.00;;;;10333257;28;20209;-74
2023/10/18 10:21:08;;;;;;;6.18;3.30;;;;;15.50;99716.00;;;;10334647;28;20217;-74
2023/10/18 10:26:11;;;;;;;7.55;3.67;;;;;15.50;99718.00;;;;10337259;28;20206;-75
2023/10/18 10:31:59;;;;;;;4.72;3.30;;;;;15.80;99707.00;;;;10336382;28;21839;-74
2023/10/18 10:37:16;;;;;;;8.05;3.00;;;;;16.10;99691.00;;;;10333752;28;20288;-74
2023/10/18 10:42:41;;;;;;;5.55;3.33;;;;;16.20;99685.00;;;;10334564;28;20197;-74
2023/10/18 10:47:44;;;;;;;4.10;3.08;;;;;16.30;99668.00;;;;10336626;28;21029;-74
2023/10/18 10:52:46;;;;;;;5.63;2.95;;;;;16.60;99651.00;;;;10360651;28;20295;-75
2023/10/18 10:57:49;;;;;;;5.30;2.90;;;;;17.00;99664.00;;;;10379189;28;20963;-75
2023/10/18 11:02:54;;;;;;;4.78;3.25;;;;;17.50;99651.00;;;;10377536;28;20244;-75
2023/10/18 11:07:57;;;;;;;6.13;3.17;;;;;17.60;99639.00;;;;10359484;28;20222;-74
2023/10/18 11:12:59;;;;;;;7.80;3.05;;;;;17.60;99638.00;;;;10361650;28;21084;-74
2023/10/18 11:18:19;;;;;;;4.43;3.13;;;;;17.60;99626.00;;;;10371180;28;20305;-74
2023/10/18 11:23:25;;;;;;;6.82;2.92;;;;;17.40;99607.00;;;;10376982;28;20226;-75
2023/10/18 11:28:30;;;;;;;5.72;2.90;;;;;17.20;99597.00;;;;10378135;28;20213;-74
2023/10/18 11:39:18;;;;;;;5.35;2.90;;;;;17.60;99562.00;;;;10250600;28;20399;-72
2023/10/18 11:44:26;;;;;;;7.68;3.17;;;;;18.00;99533.00;;;;10331454;28;20815;-72
2023/10/18 11:49:37;;;;;;;4.63;2.90;;;;;17.80;99534.00;;;;10357833;28;20229;-72
2023/10/18 11:54:40;;;;;;;4.65;2.90;;;;;17.60;99518.00;;;;10334755;28;20218;-73
2023/10/18 11:59:54;;;;;;;7.38;3.10;;;;;17.50;99494.00;;;;10360387;28;20198;-73
2023/10/18 12:04:57;;;;;;;9.48;3.30;;;;;17.90;99491.00;;;;10339684;28;20291;-73
2023/10/18 12:10:01;;;;;;;5.38;2.53;;;;;18.00;99488.00;;;;10341165;28;20267;-72
2023/10/18 12:15:06;;;;;;;9.52;3.65;;;;;17.70;99483.00;;;;10340449;28;20190;-73
2023/10/18 12:20:10;;;;;;;8.90;3.08;;;;;17.20;99471.00;;;;10360781;28;20202;-73
2023/10/18 12:25:15;;;;;;;5.35;2.78;;;;;17.20;99464.00;;;;10342296;28;20202;-73
2023/10/18 12:35:49;;;;;;;6.50;3.22;;;;;17.50;99432.00;;;;10329621;28;21212;-72
2023/10/18 12:40:52;;;;;;;8.98;3.10;;;;;18.20;99427.00;;;;10342207;28;20229;-72
2023/10/18 12:45:54;;;;;;;5.93;2.83;;;;;19.00;99416.00;;;;10335713;28;20293;-72
2023/10/18 12:50:56;;;;;;;7.80;3.60;;;;;19.30;99405.00;;;;10335723;28;20240;-72
2023/10/18 12:55:58;;;;;;;9.00;3.10;;;;;19.40;99388.00;;;;10338542;28;20210;-73
2023/10/18 13:01:06;;;;;;;4.75;2.83;;;;;19.30;99380.00;;;;10353694;28;20198;-72
2023/10/18 13:06:18;;;;;;;7.50;2.78;;;;;18.90;99365.00;;;;10335777;28;20221;-72
2023/10/18 13:16:44;;;;;;;6.63;3.47;;;;;18.50;99338.00;;;;10338267;28;20276;-72
2023/10/18 13:21:49;;;;;;;5.80;2.45;;;;;18.50;99335.00;;;;10335966;28;20233;-72
2023/10/18 13:26:53;;;;;;;5.60;2.90;;;;;18.60;99322.00;;;;10364227;28;21853;-72
2023/10/18 13:31:57;;;;;;;7.70;3.42;;;;;18.60;99295.00;;;;10346540;28;20237;-73
2023/10/18 13:37:04;;;;;;;3.95;2.97;;;;;18.60;99289.00;;;;10269161;28;20804;-72
2023/10/18 13:42:06;;;;;;;3.85;2.67;;;;;18.40;99274.00;;;;10282822;28;20876;-73
2023/10/18 13:47:09;;;;;;;6.35;2.92;;;;;18.20;99268.00;;;;10295550;28;20195;-72
2023/10/18 13:52:15;;;;;;;4.85;2.90;;;;;18.00;99269.00;;;;10286889;28;20304;-73
2023/10/18 13:57:17;;;;;;;5.05;3.25;;;;;17.90;99268.00;;;;10308053;28;20213;-73
2023/10/18 14:02:19;;;;;;;8.00;2.78;;;;;17.80;99264.00;;;;10304943;28;20296;-74
2023/10/18 14:07:21;;;;;;;7.45;3.42;;;;;17.70;99245.00;;;;10312979;28;20289;-74
2023/10/18 14:12:24;;;;;;;5.68;2.92;;;;;17.60;99252.00;;;;10302710;28;20261;-74
2023/10/18 14:17:27;;;;;;;5.40;3.22;;;;;17.40;99240.00;;;;10314354;28;20425;-73
2023/10/18 14:22:29;;;;;;;5.53;2.88;;;;;17.40;99231.00;;;;10361940;28;20301;-73
2023/10/18 14:27:31;;;;;;;5.13;3.22;;;;;17.40;99224.00;;;;10346412;28;20199;-73
2023/10/18 14:32:33;;;;;;;7.50;3.03;;;;;17.50;99232.00;;;;10364047;28;20230;-73
2023/10/18 14:37:35;;;;;;;6.38;3.10;;;;;17.50;99231.00;;;;10365858;28;20225;-74
2023/10/18 14:42:37;;;;;;;6.22;3.60;;;;;17.40;99217.00;;;;10364682;28;20265;-73
2023/10/18 14:47:39;;;;;;;6.68;3.60;;;;;17.30;99219.00;;;;10363313;28;21022;-73
2023/10/18 14:52:44;;;;;;;5.47;3.28;;;;;17.10;99225.00;;;;10365489;28;20260;-73
2023/10/18 14:57:45;;;;;;;6.03;3.30;;;;;16.90;99213.00;;;;10331811;28;20251;-73
2023/10/18 15:02:52;;;;;;;5.10;3.10;;;;;16.80;99222.00;;;;10369913;28;20379;-73
2023/10/18 15:07:57;;;;;;;6.75;3.22;;;;;16.60;99211.00;;;;10373112;28;20217;-73
2023/10/18 15:13:02;;;;;;;8.45;2.78;;;;;16.50;99207.00;;;;10356405;28;20234;-74
2023/10/18 15:18:05;;;;;;;7.93;3.38;;;;;16.40;99205.00;;;;10373755;28;20199;-73
2023/10/18 15:23:08;;;;;;;8.00;3.15;;;;;16.30;99198.00;;;;10358301;28;20307;-73
2023/10/18 15:28:10;;;;;;;6.28;3.00;;;;;16.10;99194.00;;;;10375979;28;20202;-73
2023/10/18 15:33:13;;;;;;;5.00;2.58;;;;;16.00;99204.00;;;;10372114;28;20289;-73
2023/10/18 15:38:15;;;;;;;6.00;3.33;;;;;15.90;99191.00;;;;10374359;28;20202;-73
2023/10/18 15:43:17;;;;;;;7.07;3.20;;;;;15.80;99180.00;;;;10342449;28;21685;-73
2023/10/18 15:48:19;;;;;;;9.77;3.70;;;;;15.70;99179.00;;;;10350212;28;20210;-73
2023/10/18 15:53:23;;;;;;;6.95;3.53;;;;;15.70;99164.00;;;;10368579;28;22668;-73
2023/10/18 15:58:29;;;;;;;6.80;3.22;;;;;15.50;99159.00;;;;10357968;28;20292;-73
2023/10/18 16:03:30;;;;;;;8.90;3.78;;;;;15.40;99155.00;;;;10328958;28;20396;-73
2023/10/18 16:08:33;;;;;;;6.78;3.58;;;;;15.40;99152.00;;;;10371142;28;20214;-73
2023/10/18 16:13:39;;;;;;;5.20;3.58;;;;;15.30;99151.00;;;;10364794;28;21769;-72
2023/10/18 16:18:41;;;;;;;8.43;3.30;;;;;15.20;99146.00;;;;10347313;28;21609;-72
2023/10/18 16:23:50;;;;;;;5.85;3.67;;;;;15.00;99149.00;;;;10344292;28;20205;-73
2023/10/18 16:28:52;;;;;;;6.35;3.28;;;;;14.80;99130.00;;;;10365239;28;21663;-72
2023/10/18 16:33:54;;;;;;;3.75;3.33;;;;;14.70;99133.00;;;;10361863;28;20198;-72
2023/10/18 16:38:57;;;;;;;7.60;2.90;;;;;14.60;99125.00;;;;10364407;28;20198;-72
2023/10/18 16:43:59;;;;;;;7.47;3.10;;;;;14.60;99120.00;;;;10343607;28;20202;-72
2023/10/18 16:49:03;;;;;;;5.78;3.22;;;;;14.50;99116.00;;;;10360587;28;20303;-71
2023/10/18 16:54:06;;;;;;;6.38;3.40;;;;;14.50;99123.00;;;;10345793;28;20206;-71
2023/10/18 16:59:09;;;;;;;6.50;3.40;;;;;14.40;99114.00;;;;10364078;28;20202;-72
2023/10/18 17:04:11;;;;;;;8.45;3.80;;;;;14.20;99112.00;;;;10328696;28;20213;-72
2023/10/18 17:09:19;;;;;;;7.85;3.55;;;;;14.00;99099.00;;;;10364619;28;21916;-72
2023/10/18 17:14:21;;;;;;;3.83;3.40;;;;;13.70;99102.00;;;;10370006;28;20319;-72
2023/10/18 17:19:23;;;;;;;9.60;4.55;;;;;13.50;99089.00;;;;10349659;28;20248;-72
2023/10/18 17:24:26;;;;;;;8.43;4.65;;;;;13.40;99092.00;;;;10308088;28;20265;-72
2023/10/18 17:29:28;;;;;;;7.72;5.03;;;;;13.20;99065.00;;;;10205267;28;21301;-73
2023/10/18 17:34:30;;;;;;;6.60;4.40;;;;;13.10;99058.00;;;;10135308;28;21237;-72
2023/10/18 17:39:32;;;;;;;7.20;4.88;;;;;13.00;99042.00;;;;10129039;28;21173;-72
2023/10/18 17:44:34;;;;;;;9.95;5.45;;;;;13.00;99034.00;;;;10054407;28;20207;-72
2023/10/18 17:49:37;;;;;;;9.77;5.53;;;;;12.90;99024.00;;;;10039009;28;21252;-72
2023/10/18 17:54:39;;;;;;;11.23;6.13;;;;;12.80;99017.00;;;;9991114;28;20303;-72
2023/10/18 17:59:41;;;;;;;10.40;6.97;;;;;12.80;99017.00;;;;10120627;28;20198;-73
2023/10/18 18:04:44;;;;;;;12.53;6.37;;;;;12.70;98996.00;;;;10116257;28;20227;-72
2023/10/18 18:09:47;;;;;;;10.40;5.63;;;;;12.70;98987.00;;;;10132615;28;20229;-72
2023/10/18 18:14:50;;;;;;;8.33;7.07;;;;;12.70;98976.00;;;;10161673;28;20237;-72
2023/10/18 18:19:55;;;;;;;8.57;7.10;;;;;12.60;98959.00;;;;10177470;28;20198;-72
2023/10/18 18:24:57;;;;;;;10.33;6.80;;;;;12.60;98959.00;;;;10167785;28;20197;-72
2023/10/18 18:30:02;;;;;;;10.37;7.10;;;;;12.60;98953.00;;;;10143425;28;20238;-71
2023/10/18 18:35:06;;;;;;;10.37;7.80;;;;;12.60;98931.00;;;;10144447;28;20236;-71
2023/10/18 18:40:09;;;;;;;15.27;7.97;;;;;12.60;98908.00;;;;10089425;28;20209;-71
2023/10/18 18:45:12;;;;;;;11.80;7.80;;;;;12.60;98895.00;;;;10072268;28;20798;-71
2023/10/18 18:50:14;;;;;;;9.97;8.10;;;;;12.60;98883.00;;;;10056033;28;22336;-71
2023/10/18 18:55:17;;;;;;;11.57;7.30;;;;;12.70;98865.00;;;;10154908;28;20209;-71
2023/10/18 19:00:22;;;;;;;12.20;8.20;;;;;12.70;98861.00;;;;10110083;28;20761;-71
2023/10/18 19:05:24;;;;;;;8.23;7.43;;;;;12.80;98847.00;;;;10101945;28;20194;-71
2023/10/18 19:10:27;;;;;;;11.73;7.63;;;;;12.80;98837.00;;;;10081086;28;20357;-71
2023/10/18 19:15:29;;;;;;;9.00;7.30;;;;;12.80;98836.00;;;;10069466;28;20199;-70
2023/10/18 19:20:31;;;;;;;10.97;7.20;;;;;12.80;98829.00;;;;10063638;28;20237;-71
2023/10/18 19:25:35;;;;;;;9.83;8.07;;;;;12.80;98811.00;;;;10017624;28;20232;-71
2023/10/18 19:30:40;;;;;;;11.13;9.43;;;;;12.90;98799.00;;;;9994156;28;22618;-71
2023/10/18 19:35:46;;;;;;;15.25;10.35;;;;;12.90;98808.00;;;;10010407;28;20214;-71
2023/10/18 19:40:48;;;;;;;13.07;10.03;;;;;13.00;98812.00;;;;10148502;28;20206;-71
2023/10/18 19:45:50;;;;;;;14.40;10.40;;;;;13.00;98800.00;;;;10309285;28;20214;-71
2023/10/18 19:50:53;;;;;;;14.57;10.33;;;;;13.10;98797.00;;;;10294248;28;20226;-71
2023/10/18 19:55:55;;;;;;;12.93;10.27;;;;;13.10;98793.00;;;;10311265;28;20206;-71
2023/10/18 20:00:57;;;;;;;15.45;11.05;;;;;13.20;98798.00;;;;10290088;28;20228;-70
2023/10/18 20:06:00;;;;;;;15.73;11.70;;;;;13.20;98788.00;;;;10311111;28;20226;-72
2023/10/18 20:11:08;;;;;;;14.10;11.23;;;;;13.30;98784.00;;;;10319910;28;20237;-71
2023/10/18 20:16:12;;;;;;;16.50;12.03;;;;;13.40;98773.00;;;;10295687;28;21260;-71
2023/10/18 20:21:16;;;;;;;16.40;11.00;;;;;13.40;98773.00;;;;10296431;28;20221;-71
2023/10/18 20:26:20;;;;;;;15.38;10.02;;;;;13.50;98764.00;;;;10294566;28;22344;-70
2023/10/18 20:31:23;;;;;;;13.20;10.40;;;;;13.60;98761.00;;;;10312700;28;20300;-72
2023/10/18 20:36:27;;;;;;;15.70;11.50;;;;;13.60;98754.00;;;;10314268;28;20198;-71
2023/10/18 20:41:29;;;;;;;13.32;11.27;;;;;13.70;98749.00;;;;10311228;28;21002;-72
2023/10/18 20:46:31;;;;;;;16.23;11.15;;;;;13.70;98747.00;;;;10312606;28;20206;-71
2023/10/18 20:51:33;;;;;;;15.32;10.75;;;;;13.70;98752.00;;;;10391432;28;20214;-72
2023/10/18 20:56:35;;;;;;;13.18;9.13;;;;;13.80;98753.00;;;;10398868;28;20288;-72
2023/10/18 21:01:40;;;;;;;11.35;8.88;;;;;13.90;98747.00;;;;10415358;28;20182;-71
2023/10/18 21:06:51;;;;;;;11.65;8.68;;;;;14.00;98743.00;;;;10415011;28;20178;-71
2023/10/18 21:11:53;;;;;;;9.98;8.35;;;;;14.00;98737.00;;;;10430832;28;20213;-71
2023/10/18 21:16:54;;;;;;;10.73;9.65;;;;;14.10;98730.00;;;;10424596;28;20238;-71
2023/10/18 21:21:56;;;;;;;10.63;9.35;;;;;14.10;98737.00;;;;10421246;28;20266;-71
2023/10/18 21:26:59;;;;;;;10.48;9.02;;;;;14.10;98727.00;;;;10426491;28;20255;-72
2023/10/18 21:32:01;;;;;;;12.73;8.55;;;;;14.20;98724.00;;;;10414801;28;20226;-72
2023/10/18 21:37:03;;;;;;;11.13;8.95;;;;;14.20;98714.00;;;;10428863;28;20264;-71
2023/10/18 21:42:07;;;;;;;8.77;7.88;;;;;14.20;98707.00;;;;10431034;28;20755;-71
2023/10/18 21:47:09;;;;;;;9.80;8.40;;;;;14.20;98694.00;;;;10411173;28;20197;-71
2023/10/18 21:52:11;;;;;;;11.50;8.40;;;;;14.30;98696.00;;;;10422855;28;20249;-71
2023/10/18 21:57:13;;;;;;;8.65;6.88;;;;;14.30;98687.00;;;;10398115;28;20202;-71
2023/10/18 22:02:16;;;;;;;10.80;7.35;;;;;14.40;98686.00;;;;10388017;28;20214;-72
2023/10/18 22:07:18;;;;;;;8.43;7.13;;;;;14.50;98671.00;;;;10426847;28;20260;-72
2023/10/18 22:12:26;;;;;;;8.60;7.00;;;;;14.40;98676.00;;;;10427216;28;20211;-72
2023/10/18 22:17:31;;;;;;;7.82;6.72;;;;;14.40;98673.00;;;;10426560;28;20855;-72
2023/10/18 22:22:33;;;;;;;8.70;7.55;;;;;14.40;98672.00;;;;10430024;28;20202;-72
2023/10/18 22:27:43;;;;;;;9.80;6.95;;;;;14.40;98669.00;;;;10425621;28;20206;-71
2023/10/18 22:32:47;;;;;;;7.60;6.75;;;;;14.40;98655.00;;;;10411726;28;20254;-71
2023/10/18 22:37:50;;;;;;;9.98;7.20;;;;;14.40;98658.00;;;;10404133;28;20191;-72
2023/10/18 22:42:52;;;;;;;9.98;7.82;;;;;14.50;98664.00;;;;10397381;28;20207;-72
2023/10/18 22:48:21;;;;;;;10.35;6.68;;;;;14.60;98675.00;;;;10421463;28;20198;-71
2023/10/18 22:53:45;;;;;;;5.88;5.13;;;;;14.60;98685.00;;;;10402104;28;20364;-71
2023/10/18 22:58:47;;;;;;;5.50;4.28;;;;;14.80;98701.00;;;;10387707;28;20287;-71
2023/10/18 23:03:51;;;;;;;4.63;3.70;;;;;14.90;98690.00;;;;10423658;28;20717;-72
2023/10/18 23:09:05;;;;;;;4.68;2.03;;;;;15.00;98693.00;;;;10424171;28;20217;-72
2023/10/18 23:29:39;;;;;;;8.40;1.55;;;;;14.90;98699.00;;;;10404172;28;20214;-72
2023/10/18 23:34:51;;;;;;;3.08;1.20;;;;;14.90;98699.00;;;;10407312;28;20214;-70
2023/10/18 23:39:56;;;;;;;6.63;1.38;;;;;14.90;98703.00;;;;10423784;28;20205;-70
2023/10/18 23:45:12;;;;;;;4.80;1.30;;;;;14.90;98709.00;;;;10422897;28;20253;-70
